Time;durP1;ratioP1;P1;durP2;ratioP2;P2;SDS_P1;SDS_P2;PMS_P1;PMS_P2;Temp;Humidity;BMP_temperature;BMP_pressure;BME280_temperature;BME280_humidity;BME280_pressure;Samples;Min_cycle;Max_cycle;Signal;HPM_P1;HPM_P2
2023/11/20 00:01:35;;;;;;;41.58;5.15;;;12.20;99.90;;;;;;5067681;28;20382;-71
2023/11/20 00:04:01;;;;;;;42.53;5.35;;;12.20;99.90;;;;;;5067603;28;20023;-72
2023/11/20 00:06:27;;;;;;;44.50;5.75;;;12.20;99.90;;;;;;5068632;28;20425;-71
2023/11/20 00:08:53;;;;;;;41.83;4.90;;;12.20;99.90;;;;;;5051173;28;20497;-72
2023/11/20 00:11:19;;;;;;;48.88;6.90;;;12.20;99.90;;;;;;5068474;28;20108;-72
2023/11/20 00:13:45;;;;;;;38.45;5.40;;;12.20;99.90;;;;;;5068312;28;20159;-72
2023/11/20 00:16:12;;;;;;;36.03;5.25;;;12.20;99.90;;;;;;5068397;28;20016;-72
2023/11/20 00:18:38;;;;;;;34.53;5.40;;;12.10;99.90;;;;;;5068253;28;20367;-72
2023/11/20 00:21:05;;;;;;;38.53;6.00;;;12.10;99.90;;;;;;5068046;28;20044;-72
2023/11/20 00:23:30;;;;;;;45.30;5.72;;;12.10;99.90;;;;;;5068307;28;20051;-72
2023/11/20 00:25:58;;;;;;;35.40;5.60;;;12.10;99.90;;;;;;5068044;28;20142;-72
2023/11/20 00:28:24;;;;;;;35.90;5.82;;;12.10;99.90;;;;;;5068312;28;20023;-72
2023/11/20 00:30:50;;;;;;;38.60;6.32;;;12.10;99.90;;;;;;5067711;28;20020;-72
2023/11/20 00:33:16;;;;;;;32.50;6.20;;;12.10;99.90;;;;;;5068208;28;20025;-72
2023/11/20 00:35:41;;;;;;;29.40;5.65;;;12.10;99.90;;;;;;5067587;28;20035;-72
2023/11/20 00:38:08;;;;;;;27.67;5.63;;;12.10;99.90;;;;;;5075524;28;20079;-72
2023/11/20 00:40:33;;;;;;;29.92;5.57;;;12.10;99.90;;;;;;5082017;28;20020;-72
2023/11/20 00:43:00;;;;;;;28.40;5.50;;;12.00;99.90;;;;;;5060181;28;20436;-72
2023/11/20 00:45:26;;;;;;;22.52;4.38;;;12.10;99.90;;;;;;5075360;28;20023;-72
2023/11/20 00:47:51;;;;;;;33.92;5.78;;;12.00;99.90;;;;;;5082152;28;20013;-72
2023/11/20 00:50:17;;;;;;;33.55;5.78;;;12.00;99.90;;;;;;5067503;28;20474;-72
2023/11/20 00:52:42;;;;;;;27.88;5.38;;;12.00;99.90;;;;;;5063843;28;20036;-72
2023/11/20 00:55:12;;;;;;;26.73;5.63;;;12.00;99.90;;;;;;5049498;28;20028;-72
2023/11/20 00:57:38;;;;;;;27.60;5.63;;;12.00;99.90;;;;;;5050103;28;20025;-71
2023/11/20 01:00:08;;;;;;;26.52;5.63;;;12.00;99.90;;;;;;5080813;28;20020;-72
2023/11/20 01:02:34;;;;;;;20.88;5.47;;;12.00;99.90;;;;;;5080925;28;20103;-71
2023/11/20 01:05:00;;;;;;;22.80;5.28;;;12.00;99.90;;;;;;5071712;28;20099;-72
2023/11/20 01:07:27;;;;;;;32.05;5.60;;;12.00;99.90;;;;;;5067525;28;20031;-72
2023/11/20 01:09:52;;;;;;;21.58;4.80;;;12.00;99.90;;;;;;5080885;28;20499;-72
2023/11/20 01:12:18;;;;;;;30.42;5.50;;;12.00;99.90;;;;;;5073533;28;20015;-72
2023/11/20 01:14:47;;;;;;;23.63;4.60;;;12.00;99.90;;;;;;5075549;28;20031;-72
2023/11/20 01:17:13;;;;;;;22.83;5.25;;;12.00;99.90;;;;;;5050329;28;20070;-71
2023/11/20 01:19:39;;;;;;;29.35;5.57;;;12.00;99.90;;;;;;5048951;28;20032;-72
2023/11/20 01:22:04;;;;;;;29.85;5.90;;;11.90;99.90;;;;;;5081717;28;20069;-72
2023/11/20 01:24:30;;;;;;;22.83;4.70;;;11.90;99.90;;;;;;5074896;28;20381;-71
2023/11/20 01:26:56;;;;;;;23.98;5.70;;;11.90;99.90;;;;;;5073221;28;20112;-72
2023/11/20 01:29:22;;;;;;;37.17;7.00;;;11.90;99.90;;;;;;5081155;28;20853;-72
2023/11/20 01:31:48;;;;;;;28.77;5.65;;;11.90;99.90;;;;;;5049240;28;20512;-72
2023/11/20 01:34:14;;;;;;;28.98;5.75;;;11.90;99.90;;;;;;5081211;28;20036;-72
2023/11/20 01:36:40;;;;;;;34.10;6.10;;;11.90;99.90;;;;;;5076911;28;20032;-72
2023/11/20 01:39:08;;;;;;;35.60;5.32;;;11.90;99.90;;;;;;5072678;28;20493;-71
2023/11/20 01:41:34;;;;;;;26.63;6.15;;;11.90;99.90;;;;;;5078344;28;20035;-72
2023/11/20 01:44:00;;;;;;;29.48;5.45;;;11.90;99.90;;;;;;5048912;28;20401;-71
2023/11/20 01:46:28;;;;;;;29.23;5.85;;;11.90;99.90;;;;;;5080320;28;20484;-72
2023/11/20 01:48:55;;;;;;;30.55;4.75;;;11.90;99.90;;;;;;5079840;28;20043;-72
2023/11/20 01:51:21;;;;;;;34.28;5.30;;;11.90;99.90;;;;;;5049671;28;20036;-72
2023/11/20 01:53:47;;;;;;;27.50;5.05;;;11.90;99.90;;;;;;5077642;28;20061;-70
2023/11/20 01:56:14;;;;;;;29.88;4.47;;;11.80;99.90;;;;;;5072545;28;20090;-71
2023/11/20 01:58:41;;;;;;;33.13;3.97;;;11.80;99.90;;;;;;5073294;28;20210;-72
2023/11/20 02:01:07;;;;;;;29.70;4.40;;;11.80;99.90;;;;;;5067299;28;20024;-72
2023/11/20 02:03:33;;;;;;;34.50;4.80;;;11.90;99.90;;;;;;5079566;28;20480;-72
2023/11/20 02:05:59;;;;;;;26.92;4.53;;;11.80;99.90;;;;;;5069723;28;20025;-72
2023/11/20 02:08:27;;;;;;;26.40;4.57;;;11.80;99.90;;;;;;5080808;28;20038;-71
2023/11/20 02:10:53;;;;;;;24.02;3.70;;;11.90;99.90;;;;;;5074062;28;20477;-71
2023/11/20 02:13:18;;;;;;;23.15;3.40;;;11.80;99.90;;;;;;5054919;28;20028;-71
2023/11/20 02:15:44;;;;;;;26.55;4.20;;;11.80;99.90;;;;;;5047870;28;20029;-71
2023/11/20 02:18:33;;;;;;;21.17;3.42;;;11.80;99.90;;;;;;5066623;28;20029;-71
2023/11/20 02:21:03;;;;;;;23.58;3.22;;;11.80;99.90;;;;;;5060388;28;20039;-71
2023/11/20 02:23:28;;;;;;;26.88;3.42;;;11.80;99.90;;;;;;5073012;28;20115;-71
2023/11/20 02:26:48;;;;;;;22.15;3.25;;;11.80;99.90;;;;;;5080427;28;20104;-71
2023/11/20 02:29:13;;;;;;;30.00;3.53;;;11.80;99.90;;;;;;4982331;28;20018;-71
2023/11/20 02:31:40;;;;;;;24.13;3.13;;;11.80;99.90;;;;;;4979146;28;20046;-71
2023/11/20 02:34:07;;;;;;;21.17;3.40;;;11.70;99.90;;;;;;4975062;28;20027;-71
2023/11/20 02:36:33;;;;;;;23.65;3.10;;;11.70;99.90;;;;;;4979120;28;20074;-71
2023/11/20 02:38:59;;;;;;;22.10;3.55;;;11.70;99.90;;;;;;4969003;28;20043;-71
2023/11/20 02:41:25;;;;;;;19.63;3.45;;;11.70;99.90;;;;;;4968575;28;20054;-72
2023/11/20 02:43:51;;;;;;;23.00;3.53;;;11.70;99.90;;;;;;4968924;28;20047;-71
2023/11/20 02:46:17;;;;;;;23.00;3.20;;;11.70;99.90;;;;;;4968456;28;20038;-72
2023/11/20 02:48:43;;;;;;;16.25;3.10;;;11.60;99.90;;;;;;4968819;28;20023;-71
2023/11/20 02:51:09;;;;;;;28.77;4.47;;;11.70;99.90;;;;;;4968681;28;20031;-71
2023/11/20 02:53:35;;;;;;;22.48;3.22;;;11.60;99.90;;;;;;4968736;28;20452;-71
2023/11/20 02:56:00;;;;;;;23.95;3.60;;;11.60;99.90;;;;;;4968297;28;20035;-71
2023/11/20 02:58:26;;;;;;;22.98;3.80;;;11.60;99.90;;;;;;4968552;28;20105;-72
2023/11/20 03:00:53;;;;;;;26.58;3.60;;;11.60;99.90;;;;;;4968210;28;20031;-71
2023/11/20 03:03:19;;;;;;;20.55;3.20;;;11.60;99.90;;;;;;5012282;28;20521;-71
2023/11/20 03:05:45;;;;;;;25.10;4.35;;;11.60;99.90;;;;;;5049748;28;20051;-71
2023/11/20 03:08:11;;;;;;;25.08;3.88;;;11.60;99.90;;;;;;5049598;28;20104;-71
2023/11/20 03:10:38;;;;;;;19.73;3.83;;;11.60;99.90;;;;;;5049305;28;20017;-71
2023/11/20 03:13:04;;;;;;;32.95;4.35;;;11.60;99.90;;;;;;5049769;28;20598;-71
2023/11/20 03:15:30;;;;;;;25.15;3.95;;;11.60;99.90;;;;;;5048900;28;20040;-71
2023/11/20 03:17:55;;;;;;;17.83;3.40;;;11.50;99.90;;;;;;5049586;28;20106;-71
2023/11/20 03:20:21;;;;;;;19.48;3.30;;;11.50;99.90;;;;;;5049124;28;20032;-71
2023/11/20 03:22:47;;;;;;;21.17;4.20;;;11.50;99.90;;;;;;5049300;28;20033;-71
2023/11/20 03:25:13;;;;;;;37.70;5.07;;;11.60;99.90;;;;;;5049473;28;20017;-71
2023/11/20 03:27:40;;;;;;;29.83;4.10;;;11.50;99.90;;;;;;5049539;28;20402;-71
2023/11/20 03:30:06;;;;;;;23.17;3.75;;;11.60;99.90;;;;;;5048952;28;20029;-71
2023/11/20 03:32:32;;;;;;;40.35;4.72;;;11.60;99.90;;;;;;5049250;28;20549;-71
2023/11/20 03:34:58;;;;;;;38.35;4.28;;;11.60;99.90;;;;;;5049154;28;20021;-71
2023/11/20 03:37:24;;;;;;;33.17;5.57;;;11.60;99.90;;;;;;5057941;28;20506;-71
2023/11/20 03:39:49;;;;;;;25.67;4.43;;;11.50;99.90;;;;;;5063147;28;20033;-71
2023/11/20 03:42:15;;;;;;;29.35;4.32;;;11.60;99.90;;;;;;5083254;28;20036;-71
2023/11/20 03:44:40;;;;;;;30.77;4.45;;;11.50;99.90;;;;;;5074978;28;20032;-71
2023/11/20 03:47:06;;;;;;;40.42;5.25;;;11.50;99.90;;;;;;5077138;28;20406;-71
2023/11/20 03:49:32;;;;;;;30.15;4.32;;;11.50;99.90;;;;;;5072629;28;20059;-71
2023/11/20 03:51:58;;;;;;;34.10;4.07;;;11.50;99.90;;;;;;5078597;28;20368;-72
2023/11/20 03:54:23;;;;;;;27.13;4.38;;;11.50;99.90;;;;;;5083061;28;20497;-72
2023/11/20 03:56:49;;;;;;;32.10;4.72;;;11.50;99.90;;;;;;5076598;28;20046;-71
2023/11/20 03:59:15;;;;;;;27.73;4.22;;;11.50;99.90;;;;;;5082797;28;20085;-72
2023/11/20 04:01:41;;;;;;;30.75;4.15;;;11.50;99.90;;;;;;5074010;28;20085;-72
2023/11/20 04:04:08;;;;;;;26.25;3.88;;;11.50;99.90;;;;;;5059005;28;20044;-71
2023/11/20 04:06:33;;;;;;;40.38;5.68;;;11.50;99.90;;;;;;5072328;28;20017;-71
2023/11/20 04:08:59;;;;;;;27.42;4.72;;;11.50;99.90;;;;;;5082725;28;20016;-71
2023/11/20 04:11:25;;;;;;;30.13;4.43;;;11.50;99.90;;;;;;5080433;28;20435;-71
2023/11/20 04:13:50;;;;;;;14.85;2.83;;;11.50;99.90;;;;;;5074573;28;20016;-71
2023/11/20 04:16:16;;;;;;;19.27;3.33;;;11.60;99.90;;;;;;5078114;28;20028;-72
2023/11/20 04:18:44;;;;;;;24.48;4.38;;;11.60;99.90;;;;;;5082473;28;20024;-72
2023/11/20 04:21:10;;;;;;;22.30;3.42;;;11.50;99.90;;;;;;5076592;28;20021;-72
2023/11/20 04:23:36;;;;;;;22.88;4.07;;;11.50;99.90;;;;;;5074249;28;20500;-71
2023/11/20 04:26:02;;;;;;;24.65;4.07;;;11.50;99.90;;;;;;5067339;28;20062;-72
2023/11/20 04:28:30;;;;;;;28.45;3.95;;;11.60;99.90;;;;;;5072157;28;20103;-72
2023/11/20 04:30:58;;;;;;;29.92;3.50;;;11.50;99.90;;;;;;5053617;28;20021;-71
2023/11/20 04:33:25;;;;;;;18.50;3.00;;;11.50;99.90;;;;;;5050466;28;20078;-72
2023/11/20 04:35:51;;;;;;;24.85;3.75;;;11.50;99.90;;;;;;5070937;28;20488;-72
2023/11/20 04:38:17;;;;;;;30.38;3.83;;;11.50;99.90;;;;;;5078917;28;20044;-72
2023/11/20 04:40:42;;;;;;;22.30;3.72;;;11.50;99.90;;;;;;5050622;28;20460;-71
2023/11/20 04:43:08;;;;;;;30.63;4.43;;;11.60;99.90;;;;;;5081011;28;20055;-72
2023/11/20 04:45:33;;;;;;;32.90;4.15;;;11.50;99.90;;;;;;5067554;28;20021;-71
2023/11/20 04:47:59;;;;;;;25.67;3.97;;;11.50;99.90;;;;;;5082267;28;20032;-72
2023/11/20 04:50:25;;;;;;;18.33;3.67;;;11.50;99.90;;;;;;5078173;28;20028;-71
2023/11/20 04:52:50;;;;;;;24.77;3.38;;;11.60;99.90;;;;;;5073917;28;20016;-71
2023/11/20 04:55:17;;;;;;;24.73;3.78;;;11.50;99.90;;;;;;5069482;28;20023;-71
2023/11/20 04:57:43;;;;;;;24.25;3.40;;;11.50;99.90;;;;;;5073441;28;20040;-71
2023/11/20 05:00:11;;;;;;;25.10;3.53;;;11.50;99.90;;;;;;5080313;28;20017;-71
2023/11/20 05:02:37;;;;;;;23.20;3.50;;;11.50;99.90;;;;;;5049134;28;20127;-71
2023/11/20 05:05:05;;;;;;;28.10;4.30;;;11.50;99.90;;;;;;5083103;28;20100;-71
2023/11/20 05:07:32;;;;;;;21.45;3.72;;;11.50;99.90;;;;;;5079463;28;20527;-72
2023/11/20 05:09:58;;;;;;;28.95;3.83;;;11.50;99.90;;;;;;5067278;28;20020;-72
2023/11/20 05:12:23;;;;;;;26.35;4.47;;;11.50;99.90;;;;;;5073275;28;20081;-71
2023/11/20 05:14:49;;;;;;;24.02;3.72;;;11.50;99.90;;;;;;5057250;28;20024;-71
2023/11/20 05:17:18;;;;;;;28.75;3.95;;;11.50;99.90;;;;;;5071026;28;20407;-72
2023/11/20 05:19:44;;;;;;;25.25;3.40;;;11.50;99.90;;;;;;5076570;28;20031;-71
2023/11/20 05:22:12;;;;;;;21.98;3.75;;;11.50;99.90;;;;;;5081165;28;20040;-72
2023/11/20 05:24:39;;;;;;;27.58;4.38;;;11.50;99.90;;;;;;5075754;28;20107;-72
2023/11/20 05:27:05;;;;;;;22.10;3.75;;;11.50;99.90;;;;;;5053221;28;20028;-71
2023/11/20 05:29:30;;;;;;;21.60;3.45;;;11.50;99.90;;;;;;5074160;28;20023;-71
2023/11/20 05:31:56;;;;;;;30.55;3.80;;;11.40;99.90;;;;;;5073873;28;20470;-71
2023/11/20 05:34:22;;;;;;;20.60;3.75;;;11.40;99.90;;;;;;5080985;28;20028;-72
2023/11/20 05:36:47;;;;;;;24.52;3.63;;;11.40;99.90;;;;;;5066590;28;20024;-72
2023/11/20 05:39:13;;;;;;;24.38;4.10;;;11.50;99.90;;;;;;5080951;28;20055;-71
2023/11/20 05:41:39;;;;;;;30.52;4.57;;;11.40;99.90;;;;;;5048673;28;20126;-71
2023/11/20 05:44:04;;;;;;;26.48;4.32;;;11.40;99.90;;;;;;5081038;28;20024;-71
2023/11/20 05:46:30;;;;;;;23.17;3.90;;;11.40;99.90;;;;;;5048354;28;20035;-71
2023/11/20 05:48:56;;;;;;;35.58;4.72;;;11.40;99.90;;;;;;5079716;28;20039;-72
2023/11/20 05:51:21;;;;;;;17.60;3.28;;;11.30;99.90;;;;;;5054100;28;20043;-72
2023/11/20 05:53:47;;;;;;;19.40;3.25;;;11.30;99.90;;;;;;5076144;28;20062;-72
2023/11/20 05:56:13;;;;;;;32.72;4.28;;;11.30;99.90;;;;;;5051130;28;20024;-71
2023/11/20 05:58:39;;;;;;;27.67;4.10;;;11.30;99.90;;;;;;5062567;28;20557;-71
2023/11/20 06:01:05;;;;;;;24.20;3.60;;;11.20;99.90;;;;;;5072320;28;20696;-71
2023/11/20 06:03:31;;;;;;;28.85;4.38;;;11.30;99.90;;;;;;5086037;28;20024;-72
2023/11/20 06:05:56;;;;;;;26.67;3.75;;;11.30;99.90;;;;;;5076247;28;20397;-71
2023/11/20 06:08:23;;;;;;;29.85;4.60;;;11.30;99.90;;;;;;5072574;28;20021;-71
2023/11/20 06:10:48;;;;;;;26.50;4.22;;;11.30;99.90;;;;;;5079314;28;20024;-71
2023/11/20 06:13:14;;;;;;;24.98;3.75;;;11.30;99.90;;;;;;5066671;28;20077;-71
2023/11/20 06:15:40;;;;;;;25.95;4.15;;;11.30;99.90;;;;;;5071126;28;20024;-71
2023/11/20 06:18:05;;;;;;;24.70;3.63;;;11.30;99.90;;;;;;5075416;28;20032;-72
2023/11/20 06:20:32;;;;;;;23.67;3.95;;;11.40;99.90;;;;;;5080488;28;20035;-71
2023/11/20 06:22:58;;;;;;;26.20;4.55;;;11.40;99.90;;;;;;5075675;28;20039;-71
2023/11/20 06:25:23;;;;;;;29.40;4.50;;;11.40;99.90;;;;;;5085085;28;20016;-71
2023/11/20 06:27:49;;;;;;;28.00;3.72;;;11.30;99.90;;;;;;5073591;28;20396;-72
2023/11/20 06:30:16;;;;;;;25.00;4.28;;;11.30;99.90;;;;;;5073250;28;20060;-72
2023/11/20 06:32:41;;;;;;;26.67;4.45;;;11.30;99.90;;;;;;5079169;28;20021;-71
2023/11/20 06:35:07;;;;;;;20.85;3.58;;;11.30;99.90;;;;;;5066417;28;20644;-71
2023/11/20 06:37:33;;;;;;;28.55;4.45;;;11.30;99.90;;;;;;5051000;28;20413;-71
2023/11/20 06:39:59;;;;;;;29.15;4.45;;;11.30;99.90;;;;;;5076949;28;20021;-72
2023/11/20 06:42:28;;;;;;;24.10;3.53;;;11.20;99.90;;;;;;5080207;28;20031;-72
2023/11/20 06:44:54;;;;;;;25.65;3.95;;;11.20;99.90;;;;;;5074480;28;20020;-72
2023/11/20 06:47:21;;;;;;;28.85;4.47;;;11.20;99.90;;;;;;5079011;28;20112;-73
2023/11/20 06:49:47;;;;;;;25.60;3.60;;;11.20;99.90;;;;;;5066147;28;20019;-72
2023/11/20 06:52:13;;;;;;;23.45;4.07;;;11.20;99.90;;;;;;5081869;28;20024;-72
2023/11/20 06:54:39;;;;;;;20.85;3.72;;;11.10;99.90;;;;;;5079793;28;20031;-72
2023/11/20 06:57:04;;;;;;;28.23;3.90;;;11.10;99.90;;;;;;5076273;28;20033;-71
2023/11/20 06:59:32;;;;;;;26.05;4.25;;;11.10;99.90;;;;;;5075105;28;20039;-71
2023/11/20 07:01:58;;;;;;;23.80;4.13;;;11.10;99.90;;;;;;5046587;28;20035;-72
2023/11/20 07:04:23;;;;;;;33.22;5.63;;;11.10;99.90;;;;;;5064194;28;20028;-72
2023/11/20 07:06:49;;;;;;;28.35;5.03;;;11.10;99.90;;;;;;5078751;28;20078;-72
2023/11/20 07:09:15;;;;;;;26.05;3.45;;;11.10;99.90;;;;;;5081577;28;20016;-72
2023/11/20 07:11:41;;;;;;;20.15;3.45;;;11.10;99.90;;;;;;5073612;28;20025;-71
2023/11/20 07:14:11;;;;;;;18.23;3.45;;;11.10;99.90;;;;;;5056069;28;20019;-72
2023/11/20 07:16:37;;;;;;;24.20;4.07;;;11.10;99.90;;;;;;5068029;28;20021;-72
2023/11/20 07:19:04;;;;;;;22.75;3.60;;;11.10;99.90;;;;;;5074349;28;20291;-72
2023/11/20 07:21:30;;;;;;;33.40;4.43;;;11.10;99.90;;;;;;5072901;28;20486;-72
2023/11/20 07:23:57;;;;;;;22.60;3.22;;;11.10;99.90;;;;;;5071927;28;20027;-72
2023/11/20 07:26:23;;;;;;;28.92;4.68;;;11.10;99.90;;;;;;5070819;28;20457;-71
2023/11/20 07:28:49;;;;;;;34.22;5.10;;;11.10;99.90;;;;;;5070614;28;20099;-71
2023/11/20 07:31:28;;;;;;;30.08;4.20;;;11.10;99.90;;;;;;5050373;28;20597;-71
2023/11/20 07:33:54;;;;;;;22.50;4.38;;;11.10;99.90;;;;;;5083446;28;20032;-72
2023/11/20 07:36:20;;;;;;;21.73;4.05;;;11.10;99.90;;;;;;5068650;28;20629;-71
2023/11/20 07:38:47;;;;;;;31.35;4.55;;;11.10;99.90;;;;;;5075454;28;20059;-71
2023/11/20 07:41:13;;;;;;;27.67;4.75;;;11.00;99.90;;;;;;5083266;28;20102;-71
2023/11/20 07:43:39;;;;;;;21.60;3.88;;;11.00;99.90;;;;;;5059591;28;20059;-71
2023/11/20 07:46:06;;;;;;;31.27;4.90;;;11.00;99.90;;;;;;5082813;28;20423;-72
2023/11/20 07:48:32;;;;;;;31.98;6.07;;;11.00;99.90;;;;;;5078754;28;20027;-72
2023/11/20 07:51:00;;;;;;;28.50;4.95;;;11.00;99.90;;;;;;5072429;28;20016;-72
2023/11/20 07:53:26;;;;;;;26.17;4.00;;;11.00;99.90;;;;;;5068914;28;20536;-72
2023/11/20 07:55:52;;;;;;;21.98;4.28;;;10.90;99.90;;;;;;5082907;28;20512;-72
2023/11/20 07:58:18;;;;;;;25.58;4.20;;;10.90;99.90;;;;;;5066849;28;20023;-72
2023/11/20 08:00:44;;;;;;;28.60;4.63;;;10.90;99.90;;;;;;5073728;28;20035;-72
2023/11/20 08:03:09;;;;;;;24.80;4.15;;;10.90;99.90;;;;;;5077152;28;20182;-72
2023/11/20 08:05:35;;;;;;;31.67;4.30;;;10.90;99.90;;;;;;5071968;28;20056;-72
2023/11/20 08:08:01;;;;;;;32.33;4.55;;;10.90;99.90;;;;;;5068129;28;20028;-72
2023/11/20 08:10:26;;;;;;;36.78;4.72;;;10.90;99.90;;;;;;5049115;28;20104;-72
2023/11/20 08:12:52;;;;;;;23.92;4.00;;;10.90;99.90;;;;;;5049794;28;20021;-71
2023/11/20 08:15:18;;;;;;;27.80;4.38;;;10.90;99.90;;;;;;5039578;28;20033;-71
2023/11/20 08:17:44;;;;;;;25.05;3.83;;;10.90;99.90;;;;;;5076634;28;20025;-71
2023/11/20 08:20:10;;;;;;;30.40;4.38;;;10.90;99.90;;;;;;5074674;28;20028;-72
2023/11/20 08:22:37;;;;;;;24.83;4.18;;;10.90;99.90;;;;;;5082254;28;20068;-72
2023/11/20 08:25:03;;;;;;;29.90;4.50;;;10.90;99.90;;;;;;5079972;28;20024;-71
2023/11/20 08:27:29;;;;;;;28.02;4.30;;;10.90;99.90;;;;;;5073465;28;20008;-72
2023/11/20 08:29:55;;;;;;;23.33;4.75;;;10.90;99.90;;;;;;5061275;28;20770;-72
2023/11/20 08:32:21;;;;;;;30.95;5.93;;;11.00;99.90;;;;;;5046968;28;20085;-73
2023/11/20 08:34:47;;;;;;;31.10;4.70;;;11.00;99.90;;;;;;5076604;28;20097;-72
2023/11/20 08:37:13;;;;;;;28.00;5.50;;;11.00;99.90;;;;;;5055013;28;20653;-72
2023/11/20 08:39:39;;;;;;;30.88;5.18;;;11.00;99.90;;;;;;5067711;28;20044;-71
2023/11/20 08:42:05;;;;;;;32.70;4.45;;;11.00;99.90;;;;;;5060925;28;20025;-72
2023/11/20 08:44:32;;;;;;;28.35;4.53;;;11.00;99.90;;;;;;5066737;28;20037;-72
2023/11/20 08:46:59;;;;;;;28.40;4.65;;;11.10;99.90;;;;;;5057273;28;20017;-72
2023/11/20 08:49:26;;;;;;;23.95;3.90;;;11.10;99.90;;;;;;5066763;28;20035;-72
2023/11/20 08:51:52;;;;;;;28.92;4.72;;;11.20;99.90;;;;;;5048992;28;20020;-73
2023/11/20 08:54:18;;;;;;;28.83;4.38;;;11.20;99.90;;;;;;5072092;28;20029;-72
2023/11/20 08:56:46;;;;;;;24.45;4.38;;;11.20;99.90;;;;;;5066869;28;20040;-72
2023/11/20 08:59:14;;;;;;;28.35;5.07;;;11.30;99.90;;;;;;5066690;28;20077;-72
2023/11/20 09:01:40;;;;;;;27.00;5.72;;;11.20;99.90;;;;;;5072018;28;20039;-72
2023/11/20 09:04:06;;;;;;;24.20;4.32;;;11.30;99.90;;;;;;5066993;28;20020;-72
2023/11/20 09:06:32;;;;;;;26.73;4.57;;;11.30;99.90;;;;;;5045228;28;20657;-71
2023/11/20 09:08:58;;;;;;;28.58;4.93;;;11.30;99.90;;;;;;5067645;28;20039;-72
2023/11/20 09:11:24;;;;;;;26.00;4.97;;;11.30;99.90;;;;;;5067174;28;20016;-72
2023/11/20 09:13:51;;;;;;;23.40;4.18;;;11.30;99.90;;;;;;5067548;28;20555;-72
2023/11/20 09:16:18;;;;;;;30.88;5.07;;;11.40;99.90;;;;;;5066156;28;20021;-72
2023/11/20 09:18:44;;;;;;;24.83;4.28;;;11.40;99.90;;;;;;5067281;28;20029;-72
2023/11/20 09:21:10;;;;;;;26.92;5.10;;;11.40;99.90;;;;;;5066347;28;20043;-72
2023/11/20 09:23:35;;;;;;;22.63;4.65;;;11.40;99.90;;;;;;5066537;28;20594;-72
2023/11/20 09:26:02;;;;;;;28.13;5.25;;;11.40;99.90;;;;;;5046641;28;20095;-72
2023/11/20 09:28:28;;;;;;;22.17;4.10;;;11.40;99.90;;;;;;5064254;28;20025;-72
2023/11/20 09:30:54;;;;;;;31.50;5.95;;;11.50;99.90;;;;;;5064352;28;20430;-72
2023/11/20 09:33:20;;;;;;;22.40;4.15;;;11.50;99.90;;;;;;5047359;28;20041;-72
2023/11/20 09:35:46;;;;;;;25.17;4.30;;;11.50;99.90;;;;;;5064645;28;20093;-72
2023/11/20 09:38:11;;;;;;;27.95;4.60;;;11.60;99.90;;;;;;5051249;28;20073;-72
2023/11/20 09:40:37;;;;;;;26.30;4.40;;;11.60;99.90;;;;;;5026970;28;20115;-72
2023/11/20 09:43:06;;;;;;;30.88;5.03;;;11.70;99.90;;;;;;5044411;28;20542;-72
2023/11/20 09:45:33;;;;;;;25.85;4.80;;;11.70;99.90;;;;;;5044035;28;20033;-72
2023/11/20 09:48:00;;;;;;;29.55;5.45;;;11.80;99.90;;;;;;5044767;28;20013;-72
2023/11/20 09:50:28;;;;;;;25.48;4.68;;;11.80;99.90;;;;;;5044350;28;20104;-72
2023/11/20 09:52:55;;;;;;;24.80;5.25;;;11.90;99.90;;;;;;5044489;28;20506;-72
2023/11/20 09:55:22;;;;;;;24.05;5.22;;;11.90;99.90;;;;;;5045584;28;20029;-72
2023/11/20 09:57:49;;;;;;;21.30;4.28;;;12.00;99.90;;;;;;5043420;28;20174;-72
2023/11/20 10:00:17;;;;;;;25.73;5.47;;;12.00;99.90;;;;;;5035012;28;20056;-73
2023/11/20 10:02:46;;;;;;;23.15;4.97;;;12.00;99.90;;;;;;5046027;28;20036;-71
2023/11/20 10:05:22;;;;;;;28.92;5.30;;;12.10;99.90;;;;;;5028729;28;20025;-72
2023/11/20 10:07:50;;;;;;;24.52;5.50;;;12.10;99.90;;;;;;5046380;28;20025;-72
2023/11/20 10:10:17;;;;;;;22.80;5.97;;;12.10;99.90;;;;;;5032050;28;20032;-72
2023/11/20 10:12:47;;;;;;;22.05;5.30;;;12.10;99.90;;;;;;5045950;28;20025;-72
2023/11/20 10:15:14;;;;;;;27.10;6.97;;;12.20;99.90;;;;;;5046302;28;20712;-72
2023/11/20 10:17:40;;;;;;;29.02;6.50;;;12.20;99.90;;;;;;5046045;28;20024;-72
2023/11/20 10:20:09;;;;;;;21.48;5.35;;;12.20;99.90;;;;;;5034700;28;20829;-72
2023/11/20 10:22:36;;;;;;;22.80;6.05;;;12.30;99.90;;;;;;5045780;28;20057;-72
2023/11/20 10:25:06;;;;;;;25.20;5.55;;;12.30;99.90;;;;;;5046616;28;20025;-72
2023/11/20 10:27:32;;;;;;;24.70;5.70;;;12.20;99.90;;;;;;5046222;28;20021;-72
2023/11/20 10:29:59;;;;;;;25.55;6.25;;;12.20;99.90;;;;;;5028593;28;20497;-72
2023/11/20 10:32:28;;;;;;;19.52;5.32;;;12.10;99.90;;;;;;5045825;28;20033;-72
2023/11/20 10:35:17;;;;;;;20.98;5.88;;;12.10;99.90;;;;;;5046372;28;20106;-72
2023/11/20 10:37:59;;;;;;;30.77;6.50;;;12.10;99.90;;;;;;5060940;28;20071;-72
2023/11/20 10:40:25;;;;;;;30.75;6.50;;;12.20;99.90;;;;;;5066509;28;20037;-72
2023/11/20 10:42:52;;;;;;;24.40;6.03;;;12.20;99.90;;;;;;5047833;28;20020;-72
2023/11/20 10:45:19;;;;;;;30.73;6.97;;;12.30;99.90;;;;;;5077278;28;20028;-72
2023/11/20 10:47:46;;;;;;;20.42;6.13;;;12.30;99.90;;;;;;5053726;28;20020;-72
2023/11/20 10:50:13;;;;;;;27.15;6.72;;;12.30;99.90;;;;;;5062546;28;20063;-72
2023/11/20 10:52:42;;;;;;;23.33;5.78;;;12.30;99.90;;;;;;5083943;28;20027;-72
2023/11/20 10:55:14;;;;;;;24.25;6.45;;;12.40;99.90;;;;;;5078137;28;20024;-72
2023/11/20 10:57:40;;;;;;;26.65;7.95;;;12.40;99.90;;;;;;5075481;28;20388;-72
2023/11/20 11:00:11;;;;;;;28.02;7.82;;;12.30;99.90;;;;;;5065146;28;20077;-72
2023/11/20 11:02:42;;;;;;;21.52;6.90;;;12.30;99.90;;;;;;5083185;28;20081;-72
2023/11/20 11:05:10;;;;;;;22.85;7.50;;;12.30;99.90;;;;;;5059878;28;20024;-72
2023/11/20 11:07:40;;;;;;;22.60;5.97;;;12.40;99.90;;;;;;5051438;28;20039;-72
2023/11/20 11:10:10;;;;;;;22.05;6.43;;;12.50;99.90;;;;;;5053070;28;20432;-72
2023/11/20 11:12:40;;;;;;;22.80;6.37;;;12.60;99.90;;;;;;5081901;28;20154;-72
2023/11/20 11:15:13;;;;;;;18.85;5.88;;;12.80;99.90;;;;;;5083926;28;20047;-72
2023/11/20 11:17:49;;;;;;;20.90;6.35;;;12.90;99.90;;;;;;5051080;28;20035;-72
2023/11/20 11:20:21;;;;;;;18.55;5.90;;;12.90;99.90;;;;;;5083777;28;20393;-72
2023/11/20 11:22:59;;;;;;;17.85;5.78;;;13.00;99.90;;;;;;5069160;28;20029;-72
2023/11/20 11:25:27;;;;;;;17.65;5.03;;;13.00;99.90;;;;;;5070669;28;20025;-72
2023/11/20 11:27:58;;;;;;;17.40;5.03;;;13.00;99.90;;;;;;5081667;28;20027;-72
2023/11/20 11:30:27;;;;;;;19.77;5.80;;;12.90;99.90;;;;;;5069237;28;20025;-72
2023/11/20 11:33:04;;;;;;;16.83;5.60;;;12.80;99.90;;;;;;5075702;28;20452;-72
2023/11/20 11:35:54;;;;;;;22.17;5.25;;;12.70;99.90;;;;;;5075074;28;20043;-72
2023/11/20 11:38:37;;;;;;;23.98;5.95;;;12.70;99.90;;;;;;5079338;28;20040;-72
2023/11/20 11:41:15;;;;;;;18.55;5.05;;;12.60;99.90;;;;;;5083682;28;20024;-72
2023/11/20 11:43:52;;;;;;;20.15;5.57;;;12.60;99.90;;;;;;5080559;28;20405;-72
2023/11/20 11:46:18;;;;;;;20.80;5.22;;;12.70;99.90;;;;;;5069883;28;20025;-72
2023/11/20 11:48:44;;;;;;;25.90;5.57;;;12.70;99.90;;;;;;5080001;28;20020;-72
2023/11/20 11:51:21;;;;;;;20.58;4.90;;;12.70;99.90;;;;;;5074745;28;20634;-72
2023/11/20 11:54:12;;;;;;;16.73;4.80;;;12.70;99.90;;;;;;5078475;28;20021;-72
2023/11/20 11:56:39;;;;;;;;;;;12.70;99.90;;;;;;5055150;28;20017;-72
2023/11/20 11:59:11;;;;;;;16.67;4.38;;;12.90;99.90;;;;;;5081016;28;19923;-72
2023/11/20 12:01:47;;;;;;;18.40;4.28;;;13.10;99.90;;;;;;5067751;28;20119;-73
2023/11/20 12:04:48;;;;;;;23.60;5.80;;;13.30;99.90;;;;;;5081792;28;20016;-73
2023/11/20 12:07:15;;;;;;;14.35;3.90;;;13.50;99.90;;;;;;5063998;28;20111;-73
2023/11/20 12:09:57;;;;;;;18.50;4.00;;;13.70;99.90;;;;;;5068630;28;20025;-72
2023/11/20 12:12:55;;;;;;;13.25;3.70;;;13.70;99.90;;;;;;5060848;28;20028;-73
2023/11/20 12:15:29;;;;;;;16.50;3.78;;;13.80;99.90;;;;;;5070465;28;20039;-73
2023/11/20 12:18:02;;;;;;;14.52;3.20;;;13.80;99.90;;;;;;5078767;28;20028;-73
2023/11/20 12:20:30;;;;;;;15.07;3.70;;;13.80;99.90;;;;;;5082683;28;20024;-72
2023/11/20 12:22:56;;;;;;;14.52;3.78;;;13.90;99.90;;;;;;5068225;28;20032;-73
2023/11/20 12:25:24;;;;;;;15.73;3.25;;;13.90;99.90;;;;;;5051110;28;20036;-73
2023/11/20 12:27:52;;;;;;;16.30;3.50;;;14.00;99.90;;;;;;5081131;28;20051;-73
2023/11/20 12:30:17;;;;;;;17.08;3.65;;;14.10;99.90;;;;;;5081975;28;20028;-73
2023/11/20 12:32:43;;;;;;;15.88;2.67;;;14.10;99.90;;;;;;5055884;28;20020;-73
2023/11/20 12:35:08;;;;;;;16.38;4.13;;;14.20;99.90;;;;;;5077139;28;20034;-73
2023/11/20 12:37:35;;;;;;;16.40;3.30;;;14.20;99.90;;;;;;5059268;28;20068;-73
2023/11/20 12:40:01;;;;;;;13.75;3.35;;;14.10;99.90;;;;;;5048163;28;20041;-73